sensor_id;sensor_type;location;lat;lon;timestamp;P1;durP1;ratioP1;P2;durP2;ratioP2
4248;SDS011;8404;48.752;12.922;2022-10-10T00:01:33;3.40;;;2.03;;
4248;SDS011;8404;48.752;12.922;2022-10-10T00:04:02;4.25;;;2.20;;
4248;SDS011;8404;48.752;12.922;2022-10-10T00:06:32;4.43;;;2.35;;
4248;SDS011;8404;48.752;12.922;2022-10-10T00:09:00;3.03;;;2.05;;
4248;SDS011;8404;48.752;12.922;2022-10-10T00:11:31;4.78;;;2.03;;
4248;SDS011;8404;48.752;12.922;2022-10-10T00:14:00;4.22;;;2.28;;
4248;SDS011;8404;48.752;12.922;2022-10-10T00:16:28;4.13;;;2.50;;
4248;SDS011;8404;48.752;12.922;2022-10-10T00:18:56;5.47;;;2.55;;
4248;SDS011;8404;48.752;12.922;2022-10-10T00:21:24;4.45;;;2.25;;
4248;SDS011;8404;48.752;12.922;2022-10-10T00:23:52;3.28;;;2.65;;
4248;SDS011;8404;48.752;12.922;2022-10-10T00:26:20;4.78;;;2.83;;
4248;SDS011;8404;48.752;12.922;2022-10-10T00:28:49;3.65;;;2.28;;
4248;SDS011;8404;48.752;12.922;2022-10-10T00:31:17;5.70;;;2.60;;
4248;SDS011;8404;48.752;12.922;2022-10-10T00:33:46;3.63;;;2.30;;
4248;SDS011;8404;48.752;12.922;2022-10-10T00:36:14;3.63;;;2.28;;
4248;SDS011;8404;48.752;12.922;2022-10-10T00:38:42;5.88;;;2.20;;
4248;SDS011;8404;48.752;12.922;2022-10-10T00:41:10;3.55;;;2.28;;
4248;SDS011;8404;48.752;12.922;2022-10-10T00:43:38;2.55;;;2.05;;
4248;SDS011;8404;48.752;12.922;2022-10-10T00:46:08;2.78;;;2.00;;
4248;SDS011;8404;48.752;12.922;2022-10-10T00:48:37;4.93;;;2.63;;
4248;SDS011;8404;48.752;12.922;2022-10-10T00:51:08;2.70;;;2.30;;
4248;SDS011;8404;48.752;12.922;2022-10-10T00:53:40;3.95;;;2.35;;
4248;SDS011;8404;48.752;12.922;2022-10-10T00:56:11;3.72;;;2.17;;
4248;SDS011;8404;48.752;12.922;2022-10-10T00:58:41;3.53;;;2.30;;
4248;SDS011;8404;48.752;12.922;2022-10-10T01:01:12;3.22;;;2.08;;
4248;SDS011;8404;48.752;12.922;2022-10-10T01:03:40;3.55;;;2.65;;
4248;SDS011;8404;48.752;12.922;2022-10-10T01:06:08;4.70;;;2.20;;
4248;SDS011;8404;48.752;12.922;2022-10-10T01:08:37;3.03;;;2.40;;
4248;SDS011;8404;48.752;12.922;2022-10-10T01:11:09;3.60;;;2.30;;
4248;SDS011;8404;48.752;12.922;2022-10-10T01:13:49;5.82;;;2.58;;
4248;SDS011;8404;48.752;12.922;2022-10-10T01:16:25;3.43;;;2.67;;
4248;SDS011;8404;48.752;12.922;2022-10-10T01:19:02;4.45;;;2.55;;
4248;SDS011;8404;48.752;12.922;2022-10-10T01:21:41;4.22;;;2.25;;
4248;SDS011;8404;48.752;12.922;2022-10-10T01:24:29;3.42;;;2.38;;
4248;SDS011;8404;48.752;12.922;2022-10-10T01:30:05;2.97;;;2.05;;
4248;SDS011;8404;48.752;12.922;2022-10-10T01:32:37;2.75;;;1.90;;
4248;SDS011;8404;48.752;12.922;2022-10-10T01:35:21;5.22;;;2.50;;
4248;SDS011;8404;48.752;12.922;2022-10-10T01:38:05;4.57;;;2.38;;
4248;SDS011;8404;48.752;12.922;2022-10-10T01:40:46;4.53;;;2.40;;
4248;SDS011;8404;48.752;12.922;2022-10-10T01:43:18;3.33;;;2.05;;
4248;SDS011;8404;48.752;12.922;2022-10-10T01:45:48;3.63;;;2.13;;
4248;SDS011;8404;48.752;12.922;2022-10-10T01:48:19;3.47;;;2.47;;
4248;SDS011;8404;48.752;12.922;2022-10-10T01:50:58;3.10;;;2.20;;
4248;SDS011;8404;48.752;12.922;2022-10-10T01:53:36;4.47;;;2.35;;
4248;SDS011;8404;48.752;12.922;2022-10-10T01:56:13;3.10;;;2.67;;
4248;SDS011;8404;48.752;12.922;2022-10-10T01:58:56;4.07;;;2.08;;
4248;SDS011;8404;48.752;12.922;2022-10-10T02:01:35;3.58;;;2.10;;
4248;SDS011;8404;48.752;12.922;2022-10-10T02:04:12;3.40;;;2.50;;
4248;SDS011;8404;48.752;12.922;2022-10-10T02:06:48;3.78;;;2.75;;
4248;SDS011;8404;48.752;12.922;2022-10-10T02:09:20;4.60;;;2.70;;
4248;SDS011;8404;48.752;12.922;2022-10-10T02:11:52;3.03;;;2.35;;
4248;SDS011;8404;48.752;12.922;2022-10-10T02:14:23;3.22;;;2.40;;
4248;SDS011;8404;48.752;12.922;2022-10-10T02:16:56;4.85;;;2.55;;
4248;SDS011;8404;48.752;12.922;2022-10-10T02:19:27;4.18;;;3.25;;
4248;SDS011;8404;48.752;12.922;2022-10-10T02:21:56;3.40;;;2.67;;
4248;SDS011;8404;48.752;12.922;2022-10-10T02:24:25;6.18;;;3.55;;
4248;SDS011;8404;48.752;12.922;2022-10-10T02:26:55;6.97;;;3.13;;
4248;SDS011;8404;48.752;12.922;2022-10-10T02:29:29;4.43;;;3.13;;
4248;SDS011;8404;48.752;12.922;2022-10-10T02:32:03;3.85;;;2.47;;
4248;SDS011;8404;48.752;12.922;2022-10-10T02:34:34;4.63;;;2.42;;
4248;SDS011;8404;48.752;12.922;2022-10-10T02:37:06;3.90;;;2.83;;
4248;SDS011;8404;48.752;12.922;2022-10-10T02:39:40;4.18;;;2.47;;
4248;SDS011;8404;48.752;12.922;2022-10-10T02:42:11;3.35;;;2.53;;
4248;SDS011;8404;48.752;12.922;2022-10-10T02:44:42;3.38;;;2.58;;
4248;SDS011;8404;48.752;12.922;2022-10-10T02:47:13;4.28;;;2.40;;
4248;SDS011;8404;48.752;12.922;2022-10-10T02:49:46;3.67;;;2.13;;
4248;SDS011;8404;48.752;12.922;2022-10-10T02:52:14;3.47;;;2.42;;
4248;SDS011;8404;48.752;12.922;2022-10-10T02:54:43;4.75;;;2.67;;
4248;SDS011;8404;48.752;12.922;2022-10-10T02:57:11;5.47;;;3.10;;
4248;SDS011;8404;48.752;12.922;2022-10-10T02:59:39;3.50;;;2.55;;
4248;SDS011;8404;48.752;12.922;2022-10-10T03:02:08;3.00;;;2.28;;
4248;SDS011;8404;48.752;12.922;2022-10-10T03:04:37;3.78;;;2.20;;
4248;SDS011;8404;48.752;12.922;2022-10-10T03:07:05;3.50;;;1.90;;
4248;SDS011;8404;48.752;12.922;2022-10-10T03:09:33;4.22;;;2.47;;
4248;SDS011;8404;48.752;12.922;2022-10-10T03:12:01;4.90;;;1.95;;
4248;SDS011;8404;48.752;12.922;2022-10-10T03:14:29;3.55;;;2.03;;
4248;SDS011;8404;48.752;12.922;2022-10-10T03:16:57;6.43;;;2.42;;
4248;SDS011;8404;48.752;12.922;2022-10-10T03:19:26;2.97;;;2.03;;
4248;SDS011;8404;48.752;12.922;2022-10-10T03:21:55;2.60;;;1.80;;
4248;SDS011;8404;48.752;12.922;2022-10-10T03:24:23;4.28;;;2.75;;
4248;SDS011;8404;48.752;12.922;2022-10-10T03:26:51;3.97;;;2.28;;
4248;SDS011;8404;48.752;12.922;2022-10-10T03:29:20;3.38;;;2.35;;
4248;SDS011;8404;48.752;12.922;2022-10-10T03:31:48;4.00;;;2.42;;
4248;SDS011;8404;48.752;12.922;2022-10-10T03:34:16;4.57;;;2.35;;
4248;SDS011;8404;48.752;12.922;2022-10-10T03:36:44;4.05;;;2.40;;
4248;SDS011;8404;48.752;12.922;2022-10-10T03:39:13;4.00;;;2.38;;
4248;SDS011;8404;48.752;12.922;2022-10-10T03:41:41;3.72;;;2.40;;
4248;SDS011;8404;48.752;12.922;2022-10-10T03:44:10;3.05;;;2.30;;
4248;SDS011;8404;48.752;12.922;2022-10-10T03:46:38;3.85;;;2.83;;
4248;SDS011;8404;48.752;12.922;2022-10-10T03:49:06;4.25;;;2.80;;
4248;SDS011;8404;48.752;12.922;2022-10-10T03:51:34;5.13;;;2.72;;
4248;SDS011;8404;48.752;12.922;2022-10-10T03:54:02;5.00;;;2.78;;
4248;SDS011;8404;48.752;12.922;2022-10-10T03:56:31;4.38;;;2.95;;
4248;SDS011;8404;48.752;12.922;2022-10-10T03:58:59;3.63;;;2.60;;
4248;SDS011;8404;48.752;12.922;2022-10-10T04:01:29;5.13;;;2.97;;
4248;SDS011;8404;48.752;12.922;2022-10-10T04:03:57;4.40;;;2.47;;
4248;SDS011;8404;48.752;12.922;2022-10-10T04:06:25;6.28;;;2.70;;
4248;SDS011;8404;48.752;12.922;2022-10-10T04:08:53;4.50;;;2.75;;
4248;SDS011;8404;48.752;12.922;2022-10-10T04:11:21;2.97;;;2.63;;
4248;SDS011;8404;48.752;12.922;2022-10-10T04:13:51;4.60;;;2.72;;
4248;SDS011;8404;48.752;12.922;2022-10-10T04:16:19;3.97;;;2.42;;
4248;SDS011;8404;48.752;12.922;2022-10-10T04:18:47;2.67;;;2.33;;
4248;SDS011;8404;48.752;12.922;2022-10-10T04:21:15;3.40;;;2.65;;
4248;SDS011;8404;48.752;12.922;2022-10-10T04:23:43;3.67;;;2.38;;
4248;SDS011;8404;48.752;12.922;2022-10-10T04:26:11;4.30;;;2.53;;
4248;SDS011;8404;48.752;12.922;2022-10-10T04:28:39;3.38;;;2.42;;
4248;SDS011;8404;48.752;12.922;2022-10-10T04:31:08;3.63;;;2.65;;
4248;SDS011;8404;48.752;12.922;2022-10-10T04:33:36;4.50;;;2.58;;
4248;SDS011;8404;48.752;12.922;2022-10-10T04:36:05;4.72;;;2.88;;
4248;SDS011;8404;48.752;12.922;2022-10-10T04:38:33;5.03;;;3.00;;
4248;SDS011;8404;48.752;12.922;2022-10-10T04:41:01;3.55;;;2.65;;
4248;SDS011;8404;48.752;12.922;2022-10-10T04:43:29;5.40;;;2.88;;
4248;SDS011;8404;48.752;12.922;2022-10-10T04:45:57;4.70;;;2.85;;
4248;SDS011;8404;48.752;12.922;2022-10-10T04:48:27;4.95;;;3.03;;
4248;SDS011;8404;48.752;12.922;2022-10-10T04:50:56;4.03;;;2.70;;
4248;SDS011;8404;48.752;12.922;2022-10-10T04:53:25;4.28;;;2.88;;
4248;SDS011;8404;48.752;12.922;2022-10-10T04:55:53;4.45;;;2.67;;
4248;SDS011;8404;48.752;12.922;2022-10-10T04:58:21;5.32;;;2.85;;
4248;SDS011;8404;48.752;12.922;2022-10-10T05:00:50;4.45;;;3.15;;
4248;SDS011;8404;48.752;12.922;2022-10-10T05:03:18;3.85;;;3.13;;
4248;SDS011;8404;48.752;12.922;2022-10-10T05:05:48;4.53;;;2.40;;
4248;SDS011;8404;48.752;12.922;2022-10-10T05:08:16;6.10;;;3.28;;
4248;SDS011;8404;48.752;12.922;2022-10-10T05:10:45;3.22;;;2.47;;
4248;SDS011;8404;48.752;12.922;2022-10-10T05:13:14;4.03;;;2.63;;
4248;SDS011;8404;48.752;12.922;2022-10-10T05:15:43;3.40;;;3.05;;
4248;SDS011;8404;48.752;12.922;2022-10-10T05:18:11;3.30;;;2.85;;
4248;SDS011;8404;48.752;12.922;2022-10-10T05:20:39;3.88;;;2.83;;
4248;SDS011;8404;48.752;12.922;2022-10-10T05:23:10;5.72;;;3.25;;
4248;SDS011;8404;48.752;12.922;2022-10-10T05:25:38;5.22;;;3.45;;
4248;SDS011;8404;48.752;12.922;2022-10-10T05:28:06;5.28;;;3.40;;
4248;SDS011;8404;48.752;12.922;2022-10-10T05:30:34;4.55;;;3.10;;
4248;SDS011;8404;48.752;12.922;2022-10-10T05:33:02;4.15;;;2.60;;
4248;SDS011;8404;48.752;12.922;2022-10-10T05:35:30;5.10;;;3.42;;
4248;SDS011;8404;48.752;12.922;2022-10-10T05:37:59;4.57;;;3.22;;
4248;SDS011;8404;48.752;12.922;2022-10-10T05:40:28;5.53;;;3.25;;
4248;SDS011;8404;48.752;12.922;2022-10-10T05:42:56;3.47;;;2.83;;
4248;SDS011;8404;48.752;12.922;2022-10-10T05:45:24;4.00;;;3.17;;
4248;SDS011;8404;48.752;12.922;2022-10-10T05:47:53;6.30;;;3.42;;
4248;SDS011;8404;48.752;12.922;2022-10-10T05:50:24;7.50;;;3.90;;
4248;SDS011;8404;48.752;12.922;2022-10-10T05:52:56;6.32;;;3.38;;
4248;SDS011;8404;48.752;12.922;2022-10-10T05:55:24;3.65;;;2.90;;
4248;SDS011;8404;48.752;12.922;2022-10-10T05:57:54;4.57;;;2.90;;
4248;SDS011;8404;48.752;12.922;2022-10-10T06:00:22;6.15;;;3.13;;
4248;SDS011;8404;48.752;12.922;2022-10-10T06:02:50;4.65;;;3.38;;
4248;SDS011;8404;48.752;12.922;2022-10-10T06:05:19;4.07;;;2.60;;
4248;SDS011;8404;48.752;12.922;2022-10-10T06:07:47;5.72;;;3.08;;
4248;SDS011;8404;48.752;12.922;2022-10-10T06:10:36;4.93;;;3.05;;
4248;SDS011;8404;48.752;12.922;2022-10-10T06:13:06;5.15;;;3.13;;
4248;SDS011;8404;48.752;12.922;2022-10-10T06:15:34;5.40;;;2.95;;
4248;SDS011;8404;48.752;12.922;2022-10-10T06:18:03;5.35;;;3.00;;
4248;SDS011;8404;48.752;12.922;2022-10-10T06:20:32;4.20;;;2.90;;
4248;SDS011;8404;48.752;12.922;2022-10-10T06:23:01;3.95;;;2.03;;
4248;SDS011;8404;48.752;12.922;2022-10-10T06:25:30;3.80;;;2.90;;
4248;SDS011;8404;48.752;12.922;2022-10-10T06:28:09;4.30;;;3.03;;
4248;SDS011;8404;48.752;12.922;2022-10-10T06:30:41;4.13;;;3.25;;
4248;SDS011;8404;48.752;12.922;2022-10-10T06:33:10;12.00;;;8.00;;
4248;SDS011;8404;48.752;12.922;2022-10-10T06:35:40;10.18;;;6.13;;
4248;SDS011;8404;48.752;12.922;2022-10-10T06:38:09;6.63;;;5.03;;
4248;SDS011;8404;48.752;12.922;2022-10-10T06:40:37;5.68;;;4.13;;
4248;SDS011;8404;48.752;12.922;2022-10-10T06:43:06;6.13;;;4.15;;
4248;SDS011;8404;48.752;12.922;2022-10-10T06:45:38;7.20;;;4.85;;
4248;SDS011;8404;48.752;12.922;2022-10-10T06:48:07;6.18;;;4.47;;
4248;SDS011;8404;48.752;12.922;2022-10-10T06:50:36;5.78;;;4.93;;
4248;SDS011;8404;48.752;12.922;2022-10-10T06:53:04;7.05;;;5.13;;
4248;SDS011;8404;48.752;12.922;2022-10-10T06:55:33;7.60;;;5.30;;
4248;SDS011;8404;48.752;12.922;2022-10-10T06:58:01;8.05;;;5.78;;
4248;SDS011;8404;48.752;12.922;2022-10-10T07:00:29;10.13;;;6.95;;
4248;SDS011;8404;48.752;12.922;2022-10-10T07:02:58;9.60;;;7.10;;
4248;SDS011;8404;48.752;12.922;2022-10-10T07:05:26;8.57;;;6.70;;
4248;SDS011;8404;48.752;12.922;2022-10-10T07:07:54;6.28;;;5.22;;
4248;SDS011;8404;48.752;12.922;2022-10-10T07:10:22;6.82;;;4.68;;
4248;SDS011;8404;48.752;12.922;2022-10-10T07:12:52;6.82;;;5.00;;
4248;SDS011;8404;48.752;12.922;2022-10-10T07:15:20;4.80;;;4.25;;
4248;SDS011;8404;48.752;12.922;2022-10-10T07:17:55;5.10;;;3.75;;
4248;SDS011;8404;48.752;12.922;2022-10-10T07:20:25;4.38;;;3.40;;
4248;SDS011;8404;48.752;12.922;2022-10-10T07:22:54;4.18;;;3.38;;
4248;SDS011;8404;48.752;12.922;2022-10-10T07:25:22;4.07;;;2.42;;
4248;SDS011;8404;48.752;12.922;2022-10-10T07:27:50;4.72;;;3.15;;
4248;SDS011;8404;48.752;12.922;2022-10-10T07:30:18;4.85;;;3.15;;
4248;SDS011;8404;48.752;12.922;2022-10-10T07:32:45;4.25;;;2.67;;
4248;SDS011;8404;48.752;12.922;2022-10-10T07:35:14;3.88;;;2.90;;
4248;SDS011;8404;48.752;12.922;2022-10-10T07:37:43;6.70;;;4.20;;
4248;SDS011;8404;48.752;12.922;2022-10-10T07:40:11;5.28;;;4.00;;
4248;SDS011;8404;48.752;12.922;2022-10-10T07:42:39;3.88;;;3.05;;
4248;SDS011;8404;48.752;12.922;2022-10-10T07:45:08;4.38;;;2.78;;
4248;SDS011;8404;48.752;12.922;2022-10-10T07:47:37;4.63;;;3.03;;
4248;SDS011;8404;48.752;12.922;2022-10-10T07:50:06;4.63;;;3.42;;
4248;SDS011;8404;48.752;12.922;2022-10-10T07:52:34;7.60;;;3.47;;
4248;SDS011;8404;48.752;12.922;2022-10-10T07:55:04;4.78;;;3.25;;
4248;SDS011;8404;48.752;12.922;2022-10-10T07:57:34;6.03;;;3.78;;
4248;SDS011;8404;48.752;12.922;2022-10-10T08:00:03;4.80;;;3.20;;
4248;SDS011;8404;48.752;12.922;2022-10-10T08:02:38;4.72;;;3.30;;
4248;SDS011;8404;48.752;12.922;2022-10-10T08:05:06;3.70;;;2.95;;
4248;SDS011;8404;48.752;12.922;2022-10-10T08:07:35;4.97;;;3.20;;
4248;SDS011;8404;48.752;12.922;2022-10-10T08:10:04;4.40;;;2.67;;
4248;SDS011;8404;48.752;12.922;2022-10-10T08:12:33;4.25;;;2.38;;
4248;SDS011;8404;48.752;12.922;2022-10-10T08:15:01;4.90;;;3.22;;
4248;SDS011;8404;48.752;12.922;2022-10-10T08:17:30;5.80;;;3.00;;
4248;SDS011;8404;48.752;12.922;2022-10-10T08:19:58;5.00;;;2.65;;
4248;SDS011;8404;48.752;12.922;2022-10-10T08:22:26;6.82;;;3.13;;
4248;SDS011;8404;48.752;12.922;2022-10-10T08:24:54;3.50;;;2.65;;
4248;SDS011;8404;48.752;12.922;2022-10-10T08:27:23;3.55;;;2.70;;
4248;SDS011;8404;48.752;12.922;2022-10-10T08:29:51;3.53;;;2.40;;
4248;SDS011;8404;48.752;12.922;2022-10-10T08:32:19;5.78;;;2.70;;
4248;SDS011;8404;48.752;12.922;2022-10-10T08:34:47;5.43;;;2.92;;
4248;SDS011;8404;48.752;12.922;2022-10-10T08:37:16;3.45;;;2.42;;
4248;SDS011;8404;48.752;12.922;2022-10-10T08:39:44;3.42;;;2.75;;
4248;SDS011;8404;48.752;12.922;2022-10-10T08:42:13;7.72;;;3.90;;
4248;SDS011;8404;48.752;12.922;2022-10-10T08:44:50;5.10;;;3.70;;
4248;SDS011;8404;48.752;12.922;2022-10-10T08:47:22;4.18;;;3.13;;
4248;SDS011;8404;48.752;12.922;2022-10-10T08:49:53;4.00;;;2.50;;
4248;SDS011;8404;48.752;12.922;2022-10-10T08:52:27;3.83;;;3.15;;
4248;SDS011;8404;48.752;12.922;2022-10-10T08:55:00;4.63;;;3.30;;
4248;SDS011;8404;48.752;12.922;2022-10-10T08:57:34;7.50;;;3.00;;
4248;SDS011;8404;48.752;12.922;2022-10-10T09:00:15;5.10;;;3.33;;
4248;SDS011;8404;48.752;12.922;2022-10-10T09:02:47;6.60;;;3.60;;
4248;SDS011;8404;48.752;12.922;2022-10-10T09:05:23;5.30;;;3.78;;
4248;SDS011;8404;48.752;12.922;2022-10-10T09:08:06;5.05;;;3.15;;
4248;SDS011;8404;48.752;12.922;2022-10-10T09:10:58;5.82;;;3.17;;
4248;SDS011;8404;48.752;12.922;2022-10-10T09:13:32;4.88;;;3.13;;
4248;SDS011;8404;48.752;12.922;2022-10-10T09:16:06;4.35;;;2.95;;
4248;SDS011;8404;48.752;12.922;2022-10-10T09:18:44;4.90;;;3.70;;
4248;SDS011;8404;48.752;12.922;2022-10-10T09:21:25;8.00;;;3.05;;
4248;SDS011;8404;48.752;12.922;2022-10-10T09:23:59;3.88;;;2.80;;
4248;SDS011;8404;48.752;12.922;2022-10-10T09:26:33;8.23;;;3.17;;
4248;SDS011;8404;48.752;12.922;2022-10-10T09:29:05;5.78;;;3.05;;
4248;SDS011;8404;48.752;12.922;2022-10-10T09:31:43;5.13;;;3.70;;
4248;SDS011;8404;48.752;12.922;2022-10-10T09:34:15;4.57;;;3.10;;
4248;SDS011;8404;48.752;12.922;2022-10-10T09:36:46;4.93;;;3.67;;
4248;SDS011;8404;48.752;12.922;2022-10-10T09:39:15;4.72;;;3.28;;
4248;SDS011;8404;48.752;12.922;2022-10-10T09:41:50;4.43;;;2.83;;
4248;SDS011;8404;48.752;12.922;2022-10-10T09:44:22;3.92;;;2.80;;
4248;SDS011;8404;48.752;12.922;2022-10-10T09:46:52;4.82;;;3.17;;
4248;SDS011;8404;48.752;12.922;2022-10-10T09:49:21;4.28;;;2.88;;
4248;SDS011;8404;48.752;12.922;2022-10-10T09:51:49;5.90;;;3.30;;
4248;SDS011;8404;48.752;12.922;2022-10-10T09:54:17;6.68;;;3.60;;
4248;SDS011;8404;48.752;12.922;2022-10-10T09:56:47;5.25;;;3.10;;
4248;SDS011;8404;48.752;12.922;2022-10-10T09:59:37;6.63;;;3.78;;
4248;SDS011;8404;48.752;12.922;2022-10-10T10:02:14;7.38;;;3.30;;
4248;SDS011;8404;48.752;12.922;2022-10-10T10:04:45;7.13;;;4.65;;
4248;SDS011;8404;48.752;12.922;2022-10-10T10:07:18;5.57;;;3.63;;
4248;SDS011;8404;48.752;12.922;2022-10-10T10:09:50;6.38;;;3.10;;
4248;SDS011;8404;48.752;12.922;2022-10-10T10:12:21;6.10;;;3.10;;
4248;SDS011;8404;48.752;12.922;2022-10-10T10:14:51;5.47;;;2.97;;
4248;SDS011;8404;48.752;12.922;2022-10-10T10:17:26;7.97;;;3.60;;
4248;SDS011;8404;48.752;12.922;2022-10-10T10:19:54;5.85;;;3.65;;
4248;SDS011;8404;48.752;12.922;2022-10-10T10:22:30;4.82;;;3.50;;
4248;SDS011;8404;48.752;12.922;2022-10-10T10:28:13;4.03;;;3.28;;
4248;SDS011;8404;48.752;12.922;2022-10-10T10:30:43;5.07;;;2.90;;
4248;SDS011;8404;48.752;12.922;2022-10-10T10:33:15;5.05;;;3.33;;
4248;SDS011;8404;48.752;12.922;2022-10-10T10:35:59;5.18;;;2.75;;
4248;SDS011;8404;48.752;12.922;2022-10-10T10:38:38;4.50;;;2.75;;
4248;SDS011;8404;48.752;12.922;2022-10-10T10:41:12;5.00;;;3.53;;
4248;SDS011;8404;48.752;12.922;2022-10-10T10:46:58;5.72;;;3.58;;
4248;SDS011;8404;48.752;12.922;2022-10-10T10:49:38;4.38;;;3.30;;
4248;SDS011;8404;48.752;12.922;2022-10-10T10:52:15;5.07;;;3.20;;
4248;SDS011;8404;48.752;12.922;2022-10-10T11:01:15;6.43;;;3.28;;
4248;SDS011;8404;48.752;12.922;2022-10-10T11:04:11;5.22;;;3.00;;
4248;SDS011;8404;48.752;12.922;2022-10-10T11:07:13;5.47;;;3.15;;
4248;SDS011;8404;48.752;12.922;2022-10-10T11:12:21;5.20;;;3.00;;
4248;SDS011;8404;48.752;12.922;2022-10-10T11:14:58;5.50;;;3.55;;
4248;SDS011;8404;48.752;12.922;2022-10-10T11:17:32;5.72;;;3.22;;
4248;SDS011;8404;48.752;12.922;2022-10-10T11:20:06;6.38;;;3.55;;
4248;SDS011;8404;48.752;12.922;2022-10-10T11:22:48;4.80;;;3.63;;
4248;SDS011;8404;48.752;12.922;2022-10-10T11:25:19;6.22;;;3.88;;
4248;SDS011;8404;48.752;12.922;2022-10-10T11:27:52;4.97;;;3.17;;
4248;SDS011;8404;48.752;12.922;2022-10-10T11:30:25;3.30;;;2.10;;
4248;SDS011;8404;48.752;12.922;2022-10-10T11:32:58;7.15;;;3.10;;
4248;SDS011;8404;48.752;12.922;2022-10-10T11:35:32;5.43;;;2.90;;
4248;SDS011;8404;48.752;12.922;2022-10-10T11:38:29;3.50;;;2.38;;
4248;SDS011;8404;48.752;12.922;2022-10-10T11:41:02;6.13;;;3.53;;
4248;SDS011;8404;48.752;12.922;2022-10-10T11:43:36;7.13;;;3.10;;
4248;SDS011;8404;48.752;12.922;2022-10-10T11:46:12;6.15;;;3.58;;
4248;SDS011;8404;48.752;12.922;2022-10-10T11:48:56;4.63;;;3.35;;
4248;SDS011;8404;48.752;12.922;2022-10-10T11:51:35;6.40;;;3.03;;
4248;SDS011;8404;48.752;12.922;2022-10-10T11:54:12;4.47;;;3.00;;
4248;SDS011;8404;48.752;12.922;2022-10-10T11:56:46;10.23;;;3.58;;
4248;SDS011;8404;48.752;12.922;2022-10-10T11:59:20;5.13;;;3.40;;
4248;SDS011;8404;48.752;12.922;2022-10-10T12:01:53;5.53;;;3.30;;
4248;SDS011;8404;48.752;12.922;2022-10-10T12:04:24;3.10;;;2.65;;
4248;SDS011;8404;48.752;12.922;2022-10-10T12:07:02;4.25;;;2.80;;
4248;SDS011;8404;48.752;12.922;2022-10-10T12:09:36;4.40;;;2.22;;
4248;SDS011;8404;48.752;12.922;2022-10-10T12:12:36;3.53;;;2.70;;
4248;SDS011;8404;48.752;12.922;2022-10-10T12:15:09;3.30;;;2.60;;
4248;SDS011;8404;48.752;12.922;2022-10-10T12:17:50;5.93;;;2.63;;
4248;SDS011;8404;48.752;12.922;2022-10-10T12:20:31;5.35;;;2.40;;
4248;SDS011;8404;48.752;12.922;2022-10-10T12:23:16;3.10;;;1.95;;
4248;SDS011;8404;48.752;12.922;2022-10-10T12:25:51;3.50;;;2.70;;
4248;SDS011;8404;48.752;12.922;2022-10-10T12:28:23;4.28;;;2.67;;
4248;SDS011;8404;48.752;12.922;2022-10-10T12:34:06;3.97;;;3.22;;
4248;SDS011;8404;48.752;12.922;2022-10-10T12:36:53;4.45;;;2.40;;
4248;SDS011;8404;48.752;12.922;2022-10-10T12:39:30;7.45;;;2.92;;
4248;SDS011;8404;48.752;12.922;2022-10-10T12:42:00;3.42;;;2.42;;
4248;SDS011;8404;48.752;12.922;2022-10-10T12:44:42;5.30;;;2.90;;
4248;SDS011;8404;48.752;12.922;2022-10-10T12:47:27;4.03;;;1.90;;
4248;SDS011;8404;48.752;12.922;2022-10-10T12:50:30;5.07;;;3.00;;
4248;SDS011;8404;48.752;12.922;2022-10-10T12:53:01;5.47;;;3.13;;
4248;SDS011;8404;48.752;12.922;2022-10-10T12:55:38;5.45;;;3.25;;
4248;SDS011;8404;48.752;12.922;2022-10-10T12:58:12;5.50;;;3.53;;
4248;SDS011;8404;48.752;12.922;2022-10-10T13:00:53;3.72;;;2.47;;
4248;SDS011;8404;48.752;12.922;2022-10-10T13:03:25;3.92;;;1.95;;
4248;SDS011;8404;48.752;12.922;2022-10-10T13:05:57;5.28;;;2.78;;
4248;SDS011;8404;48.752;12.922;2022-10-10T13:08:29;5.88;;;3.05;;
4248;SDS011;8404;48.752;12.922;2022-10-10T13:11:03;8.65;;;3.58;;
4248;SDS011;8404;48.752;12.922;2022-10-10T13:13:33;4.70;;;2.67;;
4248;SDS011;8404;48.752;12.922;2022-10-10T13:16:05;4.00;;;2.35;;
4248;SDS011;8404;48.752;12.922;2022-10-10T13:18:37;4.35;;;2.47;;
4248;SDS011;8404;48.752;12.922;2022-10-10T13:21:07;5.22;;;3.60;;
4248;SDS011;8404;48.752;12.922;2022-10-10T13:23:39;5.55;;;2.85;;
4248;SDS011;8404;48.752;12.922;2022-10-10T13:26:30;4.10;;;2.53;;
4248;SDS011;8404;48.752;12.922;2022-10-10T13:29:03;5.07;;;2.83;;
4248;SDS011;8404;48.752;12.922;2022-10-10T13:31:40;4.40;;;3.10;;
4248;SDS011;8404;48.752;12.922;2022-10-10T13:34:13;3.33;;;2.47;;
4248;SDS011;8404;48.752;12.922;2022-10-10T13:36:52;3.40;;;2.90;;
4248;SDS011;8404;48.752;12.922;2022-10-10T13:39:22;7.20;;;3.10;;
4248;SDS011;8404;48.752;12.922;2022-10-10T13:41:50;8.10;;;3.53;;
4248;SDS011;8404;48.752;12.922;2022-10-10T13:44:21;5.03;;;3.13;;
4248;SDS011;8404;48.752;12.922;2022-10-10T13:46:50;5.80;;;2.75;;
4248;SDS011;8404;48.752;12.922;2022-10-10T13:49:21;2.65;;;2.08;;
4248;SDS011;8404;48.752;12.922;2022-10-10T13:52:03;11.57;;;5.80;;
4248;SDS011;8404;48.752;12.922;2022-10-10T13:54:35;4.72;;;3.08;;
4248;SDS011;8404;48.752;12.922;2022-10-10T13:57:09;5.03;;;3.38;;
4248;SDS011;8404;48.752;12.922;2022-10-10T14:02:11;3.55;;;2.17;;
4248;SDS011;8404;48.752;12.922;2022-10-10T14:04:46;5.90;;;3.78;;
4248;SDS011;8404;48.752;12.922;2022-10-10T14:07:18;4.38;;;2.67;;
4248;SDS011;8404;48.752;12.922;2022-10-10T14:09:50;4.85;;;3.70;;
4248;SDS011;8404;48.752;12.922;2022-10-10T14:12:23;4.68;;;2.97;;
4248;SDS011;8404;48.752;12.922;2022-10-10T14:14:56;4.65;;;2.10;;
4248;SDS011;8404;48.752;12.922;2022-10-10T14:17:25;2.97;;;2.22;;
4248;SDS011;8404;48.752;12.922;2022-10-10T14:19:56;2.70;;;1.58;;
4248;SDS011;8404;48.752;12.922;2022-10-10T14:22:24;5.22;;;2.05;;
4248;SDS011;8404;48.752;12.922;2022-10-10T14:24:52;4.45;;;2.35;;
4248;SDS011;8404;48.752;12.922;2022-10-10T14:27:22;6.97;;;3.42;;
4248;SDS011;8404;48.752;12.922;2022-10-10T14:29:52;5.93;;;2.75;;
4248;SDS011;8404;48.752;12.922;2022-10-10T14:32:21;3.22;;;2.30;;
4248;SDS011;8404;48.752;12.922;2022-10-10T14:34:49;5.25;;;2.38;;
4248;SDS011;8404;48.752;12.922;2022-10-10T14:37:19;2.65;;;1.63;;
4248;SDS011;8404;48.752;12.922;2022-10-10T14:39:52;3.55;;;2.50;;
4248;SDS011;8404;48.752;12.922;2022-10-10T14:42:21;3.15;;;1.90;;
4248;SDS011;8404;48.752;12.922;2022-10-10T14:44:50;3.92;;;1.80;;
4248;SDS011;8404;48.752;12.922;2022-10-10T14:47:19;5.05;;;3.13;;
4248;SDS011;8404;48.752;12.922;2022-10-10T14:49:49;3.97;;;1.92;;
4248;SDS011;8404;48.752;12.922;2022-10-10T14:52:20;4.80;;;2.75;;
4248;SDS011;8404;48.752;12.922;2022-10-10T14:54:48;4.22;;;2.55;;
4248;SDS011;8404;48.752;12.922;2022-10-10T14:57:16;3.63;;;2.10;;
4248;SDS011;8404;48.752;12.922;2022-10-10T14:59:45;4.20;;;2.25;;
4248;SDS011;8404;48.752;12.922;2022-10-10T15:02:16;3.20;;;2.22;;
4248;SDS011;8404;48.752;12.922;2022-10-10T15:04:46;3.63;;;2.13;;
4248;SDS011;8404;48.752;12.922;2022-10-10T15:07:14;2.83;;;1.73;;
4248;SDS011;8404;48.752;12.922;2022-10-10T15:09:44;5.82;;;1.90;;
4248;SDS011;8404;48.752;12.922;2022-10-10T15:12:35;4.97;;;2.08;;
4248;SDS011;8404;48.752;12.922;2022-10-10T15:15:05;3.30;;;1.95;;
4248;SDS011;8404;48.752;12.922;2022-10-10T15:17:35;5.25;;;3.05;;
4248;SDS011;8404;48.752;12.922;2022-10-10T15:20:04;4.65;;;3.47;;
4248;SDS011;8404;48.752;12.922;2022-10-10T15:22:34;3.78;;;1.92;;
4248;SDS011;8404;48.752;12.922;2022-10-10T15:25:04;2.50;;;2.08;;
4248;SDS011;8404;48.752;12.922;2022-10-10T15:27:34;3.55;;;2.33;;
4248;SDS011;8404;48.752;12.922;2022-10-10T15:30:03;3.95;;;2.33;;
4248;SDS011;8404;48.752;12.922;2022-10-10T15:32:32;4.82;;;2.95;;
4248;SDS011;8404;48.752;12.922;2022-10-10T15:35:03;4.07;;;2.83;;
4248;SDS011;8404;48.752;12.922;2022-10-10T15:37:32;6.10;;;3.45;;
4248;SDS011;8404;48.752;12.922;2022-10-10T15:40:00;3.75;;;2.28;;
4248;SDS011;8404;48.752;12.922;2022-10-10T15:42:29;5.22;;;2.92;;
4248;SDS011;8404;48.752;12.922;2022-10-10T15:44:57;4.35;;;2.33;;
4248;SDS011;8404;48.752;12.922;2022-10-10T15:47:26;4.47;;;2.22;;
4248;SDS011;8404;48.752;12.922;2022-10-10T15:49:54;4.75;;;3.47;;
4248;SDS011;8404;48.752;12.922;2022-10-10T15:52:22;5.47;;;4.78;;